Zyana K — WDI6527 — position and weather

sailwx.info

Track history (hours):
 
Tides and Currents Weather Stations Pressure Air Temp Water Temp Dewpoint Dewpoint Depression Visibility Wind Speed Wind Dir Waves Ship Positions

Zyana K

Owner: G & H Towing Company, Galveston, TX. More information available from US FCC via Universal Licensing System and Coast Guard Vessel Documentation Center.

Last reported at 2018-Jun-21 19:26 UTC. Time now 2018-Jun-21 19:47 UTC.
Position N 29°21' W 094°48'.

Length 24 m; draft 5.4 m.

Type: Tug. MMSI: 367719610.

Date/timePositionNaut miles runAvg speedWind from/ knotsBaromVisibWave heightAir tempDewpointWater temp
2018-Jun-21 19:26N 29°21' W 094°48'1 3.1
2018-Jun-21 18:59N 29°20' W 094°46'1 0.1
2018-Jun-21 04:03N 29°19' W 094°47'1 7.1
2018-Jun-21 03:56N 29°19' W 094°48'2 3.6
2018-Jun-21 03:30N 29°18' W 094°49'0 0.4
2018-Jun-21 02:53N 29°19' W 094°49'2 0.3
2018-Jun-20 20:25N 29°19' W 094°47'0 0.1
2018-Jun-20 19:30N 29°19' W 094°47'2 2.9
2018-Jun-20 18:51N 29°19' W 094°49'1 1.4
2018-Jun-20 18:23N 29°18' W 094°48'0 0.0
2018-Jun-20 17:59N 29°18' W 094°48'2 3.8
2018-Jun-20 17:30N 29°20' W 094°47'1 2.0
2018-Jun-20 16:49N 29°21' W 094°46'7 0.5
2018-Jun-20 03:01N 29°23' W 094°53'0 3.2
2018-Jun-20 03:00N 29°23' W 094°53'3 5.0
2018-Jun-20 02:23N 29°22' W 094°50'4 5.2
2018-Jun-20 01:38N 29°19' W 094°47'0 0.3
2018-Jun-20 01:27N 29°19' W 094°47'2 4.4
2018-Jun-20 00:58N 29°18' W 094°49'0 0.8
2018-Jun-20 00:27N 29°19' W 094°49'2 3.8
2018-Jun-19 23:59N 29°19' W 094°47'0 0.1
2018-Jun-19 23:10N 29°19' W 094°47'0 0.0
2018-Jun-19 22:43N 29°19' W 094°47'0 0.0
2018-Jun-19 22:28N 29°19' W 094°47'0 0.0
2018-Jun-19 21:53N 29°19' W 094°47'2 3.9
2018-Jun-19 21:27N 29°19' W 094°49'0 0.9
2018-Jun-19 20:56N 29°18' W 094°48'0 0.0
2018-Jun-19 19:54N 29°18' W 094°48'1 1.3
2018-Jun-19 19:24N 29°19' W 094°49'0 0.0
2018-Jun-19 19:00N 29°19' W 094°49'0 0.2
2018-Jun-19 18:30N 29°19' W 094°49'0 0.5
2018-Jun-19 18:00N 29°18' W 094°49'2 3.2
2018-Jun-19 17:30N 29°19' W 094°48'1 0.8
2018-Jun-19 16:51N 29°19' W 094°47'0 0.0
2018-Jun-19 16:30N 29°19' W 094°47'0 0.0
2018-Jun-19 16:00N 29°19' W 094°47'0 0.2
2018-Jun-19 15:30N 29°19' W 094°47'1 2.2
2018-Jun-19 14:54N 29°20' W 094°46'1 1.9
2018-Jun-19 14:08N 29°19' W 094°47'1 7.4
2018-Jun-19 13:59N 29°19' W 094°48'0 0.5
2018-Jun-19 13:30N 29°19' W 094°48'0 0.0
2018-Jun-19 13:00N 29°19' W 094°48'1 0.1
2018-Jun-19 02:00N 29°19' W 094°47'0 0.0
2018-Jun-18 19:33N 29°19' W 094°47'0 1.2
2018-Jun-18 19:29N 29°19' W 094°47'0 0.0
2018-Jun-18 02:57N 29°19' W 094°47'15 9.9
2018-Jun-18 01:24N 29°33' W 094°55'410.4
2018-Jun-18 01:00N 29°37' W 094°57'510.6
2018-Jun-18 00:30N 29°42' W 094°59'0 0.0
2018-Jun-16 01:27N 29°42' W 094°59'511.1
2018-Jun-16 01:00N 29°37' W 094°57'2010.7
2018-Jun-15 23:09N 29°19' W 094°47'0 1.4
2018-Jun-15 23:00N 29°19' W 094°47'0 0.1
2018-Jun-15 21:37N 29°19' W 094°47'3 8.9
2018-Jun-15 21:18N 29°21' W 094°44'1 5.2
2018-Jun-15 21:00N 29°21' W 094°46'1410.9
2018-Jun-15 19:45N 29°32' W 094°54'310.7
2018-Jun-15 19:30N 29°35' W 094°56'510.2
2018-Jun-15 19:00N 29°39' W 094°58'  
Track history (hours):
 
Tides and Currents Weather Stations Pressure Air Temp Water Temp Dewpoint Dewpoint Depression Visibility Wind Speed Wind Dir Waves Ship Positions

Zyana K

Owner: G & H Towing Company, Galveston, TX. More information available from US FCC via Universal Licensing System and Coast Guard Vessel Documentation Center.

Last reported at 2018-Jun-21 19:26 UTC. Time now 2018-Jun-21 19:47 UTC.
Position N 29°21' W 094°48'.

Length 24 m; draft 5.4 m.

Type: Tug. MMSI: 367719610.

Date/timePositionNaut miles runAvg speedWind from/ knotsBaromVisibWave heightAir tempDewpointWater temp
2018-Jun-21 19:26N 29°21' W 094°48'1 3.1
2018-Jun-21 18:59N 29°20' W 094°46'1 0.1
2018-Jun-21 04:03N 29°19' W 094°47'1 7.1
2018-Jun-21 03:56N 29°19' W 094°48'2 3.6
2018-Jun-21 03:30N 29°18' W 094°49'0 0.4
2018-Jun-21 02:53N 29°19' W 094°49'2 0.3
2018-Jun-20 20:25N 29°19' W 094°47'0 0.1
2018-Jun-20 19:30N 29°19' W 094°47'2 2.9
2018-Jun-20 18:51N 29°19' W 094°49'1 1.4
2018-Jun-20 18:23N 29°18' W 094°48'0 0.0
2018-Jun-20 17:59N 29°18' W 094°48'2 3.8
2018-Jun-20 17:30N 29°20' W 094°47'1 2.0
2018-Jun-20 16:49N 29°21' W 094°46'7 0.5
2018-Jun-20 03:01N 29°23' W 094°53'0 3.2
2018-Jun-20 03:00N 29°23' W 094°53'3 5.0
2018-Jun-20 02:23N 29°22' W 094°50'4 5.2
2018-Jun-20 01:38N 29°19' W 094°47'0 0.3
2018-Jun-20 01:27N 29°19' W 094°47'2 4.4
2018-Jun-20 00:58N 29°18' W 094°49'0 0.8
2018-Jun-20 00:27N 29°19' W 094°49'2 3.8
2018-Jun-19 23:59N 29°19' W 094°47'0 0.1
2018-Jun-19 23:10N 29°19' W 094°47'0 0.0
2018-Jun-19 22:43N 29°19' W 094°47'0 0.0
2018-Jun-19 22:28N 29°19' W 094°47'0 0.0
2018-Jun-19 21:53N 29°19' W 094°47'2 3.9
2018-Jun-19 21:27N 29°19' W 094°49'0 0.9
2018-Jun-19 20:56N 29°18' W 094°48'0 0.0
2018-Jun-19 19:54N 29°18' W 094°48'1 1.3
2018-Jun-19 19:24N 29°19' W 094°49'0 0.0
2018-Jun-19 19:00N 29°19' W 094°49'0 0.2
2018-Jun-19 18:30N 29°19' W 094°49'0 0.5
2018-Jun-19 18:00N 29°18' W 094°49'2 3.2
2018-Jun-19 17:30N 29°19' W 094°48'1 0.8
2018-Jun-19 16:51N 29°19' W 094°47'0 0.0
2018-Jun-19 16:30N 29°19' W 094°47'0 0.0
2018-Jun-19 16:00N 29°19' W 094°47'0 0.2
2018-Jun-19 15:30N 29°19' W 094°47'1 2.2
2018-Jun-19 14:54N 29°20' W 094°46'1 1.9
2018-Jun-19 14:08N 29°19' W 094°47'1 7.4
2018-Jun-19 13:59N 29°19' W 094°48'0 0.5
2018-Jun-19 13:30N 29°19' W 094°48'0 0.0
2018-Jun-19 13:00N 29°19' W 094°48'1 0.1
2018-Jun-19 02:00N 29°19' W 094°47'0 0.0
2018-Jun-18 19:33N 29°19' W 094°47'0 1.2
2018-Jun-18 19:29N 29°19' W 094°47'0 0.0
2018-Jun-18 02:57N 29°19' W 094°47'15 9.9
2018-Jun-18 01:24N 29°33' W 094°55'410.4
2018-Jun-18 01:00N 29°37' W 094°57'510.6
2018-Jun-18 00:30N 29°42' W 094°59'0 0.0
2018-Jun-16 01:27N 29°42' W 094°59'511.1
2018-Jun-16 01:00N 29°37' W 094°57'2010.7
2018-Jun-15 23:09N 29°19' W 094°47'0 1.4
2018-Jun-15 23:00N 29°19' W 094°47'0 0.1
2018-Jun-15 21:37N 29°19' W 094°47'3 8.9
2018-Jun-15 21:18N 29°21' W 094°44'1 5.2
2018-Jun-15 21:00N 29°21' W 094°46'1410.9
2018-Jun-15 19:45N 29°32' W 094°54'310.7
2018-Jun-15 19:30N 29°35' W 094°56'510.2
2018-Jun-15 19:00N 29°39' W 094°58'  

Dump ship's entire track history